sensor_id;sensor_type;location;lat;lon;timestamp;P1;durP1;ratioP1;P2;durP2;ratioP2
23680;SDS011;62915;50.832;4.462;2022-12-10T00:00:53;48.97;;;21.30;;
23680;SDS011;62915;50.832;4.462;2022-12-10T00:03:18;47.25;;;22.33;;
23680;SDS011;62915;50.832;4.462;2022-12-10T00:05:44;45.35;;;21.95;;
23680;SDS011;62915;50.832;4.462;2022-12-10T00:08:10;42.78;;;20.02;;
23680;SDS011;62915;50.832;4.462;2022-12-10T00:10:39;43.35;;;21.13;;
23680;SDS011;62915;50.832;4.462;2022-12-10T00:13:05;46.13;;;21.38;;
23680;SDS011;62915;50.832;4.462;2022-12-10T00:15:34;44.88;;;21.73;;
23680;SDS011;62915;50.832;4.462;2022-12-10T00:18:00;49.55;;;23.58;;
23680;SDS011;62915;50.832;4.462;2022-12-10T00:20:25;49.25;;;22.27;;
23680;SDS011;62915;50.832;4.462;2022-12-10T00:22:51;49.67;;;21.98;;
23680;SDS011;62915;50.832;4.462;2022-12-10T00:25:16;46.22;;;21.35;;
23680;SDS011;62915;50.832;4.462;2022-12-10T00:27:42;50.00;;;23.60;;
23680;SDS011;62915;50.832;4.462;2022-12-10T00:30:08;44.05;;;21.52;;
23680;SDS011;62915;50.832;4.462;2022-12-10T00:32:34;51.13;;;23.08;;
23680;SDS011;62915;50.832;4.462;2022-12-10T00:35:00;48.85;;;22.48;;
23680;SDS011;62915;50.832;4.462;2022-12-10T00:37:26;48.33;;;21.83;;
23680;SDS011;62915;50.832;4.462;2022-12-10T00:39:52;55.78;;;22.90;;
23680;SDS011;62915;50.832;4.462;2022-12-10T00:42:17;52.13;;;23.42;;
23680;SDS011;62915;50.832;4.462;2022-12-10T00:44:44;54.03;;;23.58;;
23680;SDS011;62915;50.832;4.462;2022-12-10T00:47:10;49.50;;;24.40;;
23680;SDS011;62915;50.832;4.462;2022-12-10T00:49:35;51.10;;;23.95;;
23680;SDS011;62915;50.832;4.462;2022-12-10T00:52:01;51.25;;;23.98;;
23680;SDS011;62915;50.832;4.462;2022-12-10T00:54:27;48.75;;;22.63;;
23680;SDS011;62915;50.832;4.462;2022-12-10T00:56:53;46.97;;;23.40;;
23680;SDS011;62915;50.832;4.462;2022-12-10T00:59:18;57.60;;;24.65;;
23680;SDS011;62915;50.832;4.462;2022-12-10T01:01:44;51.30;;;23.73;;
23680;SDS011;62915;50.832;4.462;2022-12-10T01:04:11;51.97;;;22.85;;
23680;SDS011;62915;50.832;4.462;2022-12-10T01:09:19;51.05;;;23.23;;
23680;SDS011;62915;50.832;4.462;2022-12-10T01:11:50;49.17;;;22.10;;
23680;SDS011;62915;50.832;4.462;2022-12-10T01:14:19;48.78;;;22.98;;
23680;SDS011;62915;50.832;4.462;2022-12-10T01:16:47;50.40;;;22.60;;
23680;SDS011;62915;50.832;4.462;2022-12-10T01:19:13;49.95;;;22.23;;
23680;SDS011;62915;50.832;4.462;2022-12-10T01:21:39;47.13;;;21.30;;
23680;SDS011;62915;50.832;4.462;2022-12-10T01:24:05;47.38;;;21.13;;
23680;SDS011;62915;50.832;4.462;2022-12-10T01:26:32;49.25;;;21.05;;
23680;SDS011;62915;50.832;4.462;2022-12-10T01:28:59;46.20;;;21.35;;
23680;SDS011;62915;50.832;4.462;2022-12-10T01:31:26;45.30;;;19.63;;
23680;SDS011;62915;50.832;4.462;2022-12-10T01:33:58;39.47;;;19.40;;
23680;SDS011;62915;50.832;4.462;2022-12-10T01:36:29;43.80;;;21.10;;
23680;SDS011;62915;50.832;4.462;2022-12-10T01:39:00;47.80;;;21.08;;
23680;SDS011;62915;50.832;4.462;2022-12-10T01:41:29;47.40;;;21.58;;
23680;SDS011;62915;50.832;4.462;2022-12-10T01:44:03;47.97;;;21.90;;
23680;SDS011;62915;50.832;4.462;2022-12-10T01:46:34;50.78;;;21.42;;
23680;SDS011;62915;50.832;4.462;2022-12-10T01:49:06;45.80;;;21.73;;
23680;SDS011;62915;50.832;4.462;2022-12-10T01:51:34;52.08;;;23.00;;
23680;SDS011;62915;50.832;4.462;2022-12-10T01:54:08;54.67;;;23.80;;
23680;SDS011;62915;50.832;4.462;2022-12-10T01:56:43;47.22;;;21.05;;
23680;SDS011;62915;50.832;4.462;2022-12-10T01:59:10;49.75;;;21.13;;
23680;SDS011;62915;50.832;4.462;2022-12-10T02:06:50;48.30;;;22.80;;
23680;SDS011;62915;50.832;4.462;2022-12-10T02:17:41;45.50;;;20.85;;
23680;SDS011;62915;50.832;4.462;2022-12-10T02:22:49;47.10;;;21.75;;
23680;SDS011;62915;50.832;4.462;2022-12-10T02:25:39;46.95;;;22.52;;
23680;SDS011;62915;50.832;4.462;2022-12-10T02:30:50;46.67;;;21.58;;
23680;SDS011;62915;50.832;4.462;2022-12-10T02:33:19;46.83;;;21.00;;
23680;SDS011;62915;50.832;4.462;2022-12-10T02:35:46;52.30;;;23.50;;
23680;SDS011;62915;50.832;4.462;2022-12-10T02:38:19;60.42;;;25.23;;
23680;SDS011;62915;50.832;4.462;2022-12-10T02:40:52;51.13;;;23.60;;
23680;SDS011;62915;50.832;4.462;2022-12-10T02:43:24;56.05;;;24.23;;
23680;SDS011;62915;50.832;4.462;2022-12-10T02:45:52;56.70;;;24.67;;
23680;SDS011;62915;50.832;4.462;2022-12-10T02:48:20;55.22;;;24.77;;
23680;SDS011;62915;50.832;4.462;2022-12-10T02:50:47;55.15;;;25.48;;
23680;SDS011;62915;50.832;4.462;2022-12-10T02:53:12;53.25;;;25.52;;
23680;SDS011;62915;50.832;4.462;2022-12-10T02:55:53;57.60;;;27.05;;
23680;SDS011;62915;50.832;4.462;2022-12-10T02:58:36;60.53;;;26.67;;
23680;SDS011;62915;50.832;4.462;2022-12-10T03:01:13;59.90;;;26.25;;
23680;SDS011;62915;50.832;4.462;2022-12-10T03:07:08;57.85;;;26.83;;
23680;SDS011;62915;50.832;4.462;2022-12-10T03:09:41;54.95;;;26.35;;
23680;SDS011;62915;50.832;4.462;2022-12-10T03:12:29;58.95;;;26.55;;
23680;SDS011;62915;50.832;4.462;2022-12-10T03:15:00;50.17;;;25.98;;
23680;SDS011;62915;50.832;4.462;2022-12-10T03:17:29;57.38;;;26.08;;
23680;SDS011;62915;50.832;4.462;2022-12-10T03:19:57;57.70;;;26.67;;
23680;SDS011;62915;50.832;4.462;2022-12-10T03:22:24;60.72;;;27.25;;
23680;SDS011;62915;50.832;4.462;2022-12-10T03:24:51;60.67;;;27.33;;
23680;SDS011;62915;50.832;4.462;2022-12-10T03:27:18;64.40;;;28.13;;
23680;SDS011;62915;50.832;4.462;2022-12-10T03:29:50;65.95;;;28.75;;
23680;SDS011;62915;50.832;4.462;2022-12-10T03:32:20;59.30;;;29.23;;
23680;SDS011;62915;50.832;4.462;2022-12-10T03:34:48;62.58;;;28.77;;
23680;SDS011;62915;50.832;4.462;2022-12-10T03:37:16;56.47;;;26.48;;
23680;SDS011;62915;50.832;4.462;2022-12-10T03:39:42;69.70;;;29.35;;
23680;SDS011;62915;50.832;4.462;2022-12-10T03:42:08;69.47;;;30.15;;
23680;SDS011;62915;50.832;4.462;2022-12-10T03:44:35;70.47;;;29.05;;
23680;SDS011;62915;50.832;4.462;2022-12-10T03:47:02;73.32;;;31.15;;
23680;SDS011;62915;50.832;4.462;2022-12-10T03:49:30;66.68;;;29.20;;
23680;SDS011;62915;50.832;4.462;2022-12-10T03:51:56;65.60;;;30.88;;
23680;SDS011;62915;50.832;4.462;2022-12-10T03:54:22;73.53;;;32.60;;
23680;SDS011;62915;50.832;4.462;2022-12-10T03:56:48;72.13;;;31.85;;
23680;SDS011;62915;50.832;4.462;2022-12-10T03:59:14;72.13;;;31.58;;
23680;SDS011;62915;50.832;4.462;2022-12-10T04:01:40;73.85;;;32.85;;
23680;SDS011;62915;50.832;4.462;2022-12-10T04:04:06;77.22;;;33.40;;
23680;SDS011;62915;50.832;4.462;2022-12-10T04:06:32;69.63;;;31.90;;
23680;SDS011;62915;50.832;4.462;2022-12-10T04:08:58;85.25;;;36.22;;
23680;SDS011;62915;50.832;4.462;2022-12-10T04:11:24;75.63;;;33.17;;
23680;SDS011;62915;50.832;4.462;2022-12-10T04:13:50;74.78;;;32.65;;
23680;SDS011;62915;50.832;4.462;2022-12-10T04:16:34;79.25;;;32.58;;
23680;SDS011;62915;50.832;4.462;2022-12-10T04:19:07;84.00;;;34.17;;
23680;SDS011;62915;50.832;4.462;2022-12-10T04:21:38;79.05;;;31.73;;
23680;SDS011;62915;50.832;4.462;2022-12-10T04:24:25;89.97;;;34.13;;
23680;SDS011;62915;50.832;4.462;2022-12-10T04:29:45;96.45;;;36.65;;
23680;SDS011;62915;50.832;4.462;2022-12-10T04:32:11;85.45;;;35.67;;
23680;SDS011;62915;50.832;4.462;2022-12-10T04:34:36;98.63;;;38.83;;
23680;SDS011;62915;50.832;4.462;2022-12-10T04:37:02;91.63;;;37.03;;
23680;SDS011;62915;50.832;4.462;2022-12-10T04:39:29;96.18;;;38.42;;
23680;SDS011;62915;50.832;4.462;2022-12-10T04:41:55;100.18;;;39.38;;
23680;SDS011;62915;50.832;4.462;2022-12-10T04:44:21;89.70;;;37.88;;
23680;SDS011;62915;50.832;4.462;2022-12-10T04:46:47;91.07;;;37.90;;
23680;SDS011;62915;50.832;4.462;2022-12-10T04:49:13;91.13;;;37.10;;
23680;SDS011;62915;50.832;4.462;2022-12-10T04:51:39;85.75;;;35.40;;
23680;SDS011;62915;50.832;4.462;2022-12-10T04:54:05;95.90;;;36.90;;
23680;SDS011;62915;50.832;4.462;2022-12-10T04:56:32;81.47;;;33.72;;
23680;SDS011;62915;50.832;4.462;2022-12-10T04:58:58;87.50;;;34.95;;
23680;SDS011;62915;50.832;4.462;2022-12-10T05:01:24;95.15;;;37.15;;
23680;SDS011;62915;50.832;4.462;2022-12-10T05:03:50;88.55;;;35.65;;
23680;SDS011;62915;50.832;4.462;2022-12-10T05:06:17;82.10;;;33.75;;
23680;SDS011;62915;50.832;4.462;2022-12-10T05:08:44;90.40;;;35.45;;
23680;SDS011;62915;50.832;4.462;2022-12-10T05:11:12;96.70;;;36.88;;
23680;SDS011;62915;50.832;4.462;2022-12-10T05:13:39;86.88;;;32.72;;
23680;SDS011;62915;50.832;4.462;2022-12-10T05:16:06;95.65;;;35.95;;
23680;SDS011;62915;50.832;4.462;2022-12-10T05:18:34;88.43;;;33.33;;
23680;SDS011;62915;50.832;4.462;2022-12-10T05:21:04;80.38;;;32.83;;
23680;SDS011;62915;50.832;4.462;2022-12-10T05:23:31;80.07;;;30.50;;
23680;SDS011;62915;50.832;4.462;2022-12-10T05:26:02;78.63;;;30.42;;
23680;SDS011;62915;50.832;4.462;2022-12-10T05:28:30;91.97;;;27.48;;
23680;SDS011;62915;50.832;4.462;2022-12-10T05:30:57;73.18;;;29.73;;
23680;SDS011;62915;50.832;4.462;2022-12-10T05:33:23;77.78;;;29.40;;
23680;SDS011;62915;50.832;4.462;2022-12-10T05:35:55;78.07;;;29.50;;
23680;SDS011;62915;50.832;4.462;2022-12-10T05:38:23;75.93;;;28.80;;
23680;SDS011;62915;50.832;4.462;2022-12-10T05:40:49;74.85;;;29.25;;
23680;SDS011;62915;50.832;4.462;2022-12-10T05:43:15;73.45;;;30.17;;
23680;SDS011;62915;50.832;4.462;2022-12-10T05:45:42;79.00;;;28.92;;
23680;SDS011;62915;50.832;4.462;2022-12-10T05:48:09;74.45;;;29.38;;
23680;SDS011;62915;50.832;4.462;2022-12-10T05:50:36;80.00;;;27.05;;
23680;SDS011;62915;50.832;4.462;2022-12-10T05:53:02;77.32;;;27.98;;
23680;SDS011;62915;50.832;4.462;2022-12-10T05:55:28;86.63;;;31.08;;
23680;SDS011;62915;50.832;4.462;2022-12-10T05:57:54;75.72;;;29.17;;
23680;SDS011;62915;50.832;4.462;2022-12-10T06:00:20;75.47;;;28.90;;
23680;SDS011;62915;50.832;4.462;2022-12-10T06:02:48;77.60;;;29.23;;
23680;SDS011;62915;50.832;4.462;2022-12-10T06:05:15;82.20;;;29.00;;
23680;SDS011;62915;50.832;4.462;2022-12-10T06:07:41;76.55;;;27.30;;
23680;SDS011;62915;50.832;4.462;2022-12-10T06:10:07;74.63;;;27.38;;
23680;SDS011;62915;50.832;4.462;2022-12-10T06:12:33;74.25;;;26.67;;
23680;SDS011;62915;50.832;4.462;2022-12-10T06:14:59;70.68;;;27.35;;
23680;SDS011;62915;50.832;4.462;2022-12-10T06:17:25;76.18;;;25.50;;
23680;SDS011;62915;50.832;4.462;2022-12-10T06:19:51;66.07;;;24.80;;
23680;SDS011;62915;50.832;4.462;2022-12-10T06:22:17;64.28;;;26.52;;
23680;SDS011;62915;50.832;4.462;2022-12-10T06:24:42;66.82;;;25.95;;
23680;SDS011;62915;50.832;4.462;2022-12-10T06:27:08;67.60;;;24.45;;
23680;SDS011;62915;50.832;4.462;2022-12-10T06:29:34;73.10;;;24.98;;
23680;SDS011;62915;50.832;4.462;2022-12-10T06:31:59;68.80;;;25.73;;
23680;SDS011;62915;50.832;4.462;2022-12-10T06:34:25;81.03;;;26.02;;
23680;SDS011;62915;50.832;4.462;2022-12-10T06:36:51;62.38;;;25.02;;
23680;SDS011;62915;50.832;4.462;2022-12-10T06:39:16;78.93;;;27.05;;
23680;SDS011;62915;50.832;4.462;2022-12-10T06:41:42;65.60;;;26.15;;
23680;SDS011;62915;50.832;4.462;2022-12-10T06:44:12;83.53;;;27.08;;
23680;SDS011;62915;50.832;4.462;2022-12-10T06:46:38;74.65;;;26.40;;
23680;SDS011;62915;50.832;4.462;2022-12-10T06:49:05;91.43;;;25.92;;
23680;SDS011;62915;50.832;4.462;2022-12-10T06:51:32;84.25;;;26.23;;
23680;SDS011;62915;50.832;4.462;2022-12-10T06:53:58;68.95;;;26.20;;
23680;SDS011;62915;50.832;4.462;2022-12-10T06:56:24;70.85;;;23.38;;
23680;SDS011;62915;50.832;4.462;2022-12-10T06:58:50;73.25;;;23.98;;
23680;SDS011;62915;50.832;4.462;2022-12-10T07:01:20;71.88;;;23.80;;
23680;SDS011;62915;50.832;4.462;2022-12-10T07:03:48;71.18;;;28.58;;
23680;SDS011;62915;50.832;4.462;2022-12-10T07:06:14;90.93;;;25.05;;
23680;SDS011;62915;50.832;4.462;2022-12-10T07:08:40;59.33;;;23.40;;
23680;SDS011;62915;50.832;4.462;2022-12-10T07:11:07;67.65;;;24.92;;
23680;SDS011;62915;50.832;4.462;2022-12-10T07:13:36;59.83;;;24.00;;
23680;SDS011;62915;50.832;4.462;2022-12-10T07:16:03;60.97;;;22.98;;
23680;SDS011;62915;50.832;4.462;2022-12-10T07:18:36;61.33;;;24.77;;
23680;SDS011;62915;50.832;4.462;2022-12-10T07:21:11;63.63;;;23.65;;
23680;SDS011;62915;50.832;4.462;2022-12-10T07:23:51;77.47;;;25.08;;
23680;SDS011;62915;50.832;4.462;2022-12-10T07:26:20;65.05;;;23.27;;
23680;SDS011;62915;50.832;4.462;2022-12-10T07:28:46;69.70;;;23.73;;
23680;SDS011;62915;50.832;4.462;2022-12-10T07:31:12;57.60;;;23.80;;
23680;SDS011;62915;50.832;4.462;2022-12-10T07:33:37;68.75;;;25.38;;
23680;SDS011;62915;50.832;4.462;2022-12-10T07:36:07;68.25;;;24.95;;
23680;SDS011;62915;50.832;4.462;2022-12-10T07:38:35;75.07;;;25.23;;
23680;SDS011;62915;50.832;4.462;2022-12-10T07:41:04;66.70;;;23.40;;
23680;SDS011;62915;50.832;4.462;2022-12-10T07:43:34;53.97;;;22.55;;
23680;SDS011;62915;50.832;4.462;2022-12-10T07:46:08;57.50;;;23.25;;
23680;SDS011;62915;50.832;4.462;2022-12-10T07:48:48;65.45;;;22.15;;
23680;SDS011;62915;50.832;4.462;2022-12-10T07:51:15;61.80;;;24.00;;
23680;SDS011;62915;50.832;4.462;2022-12-10T07:53:42;65.93;;;25.27;;
23680;SDS011;62915;50.832;4.462;2022-12-10T07:56:08;65.88;;;24.73;;
23680;SDS011;62915;50.832;4.462;2022-12-10T07:58:34;56.45;;;21.35;;
23680;SDS011;62915;50.832;4.462;2022-12-10T08:01:07;55.13;;;21.10;;
23680;SDS011;62915;50.832;4.462;2022-12-10T08:03:37;54.17;;;21.00;;
23680;SDS011;62915;50.832;4.462;2022-12-10T08:06:03;53.67;;;20.90;;
23680;SDS011;62915;50.832;4.462;2022-12-10T08:08:35;63.25;;;23.50;;
23680;SDS011;62915;50.832;4.462;2022-12-10T08:11:03;57.38;;;22.92;;
23680;SDS011;62915;50.832;4.462;2022-12-10T08:13:29;61.80;;;20.67;;
23680;SDS011;62915;50.832;4.462;2022-12-10T08:16:12;58.83;;;22.17;;
23680;SDS011;62915;50.832;4.462;2022-12-10T08:18:39;50.00;;;20.95;;
23680;SDS011;62915;50.832;4.462;2022-12-10T08:21:09;54.78;;;21.33;;
23680;SDS011;62915;50.832;4.462;2022-12-10T08:23:37;61.55;;;21.52;;
23680;SDS011;62915;50.832;4.462;2022-12-10T08:26:07;54.33;;;21.48;;
23680;SDS011;62915;50.832;4.462;2022-12-10T08:28:38;57.30;;;21.02;;
23680;SDS011;62915;50.832;4.462;2022-12-10T08:31:04;59.05;;;21.95;;
23680;SDS011;62915;50.832;4.462;2022-12-10T08:33:32;58.25;;;23.17;;
23680;SDS011;62915;50.832;4.462;2022-12-10T08:35:59;59.65;;;21.88;;
23680;SDS011;62915;50.832;4.462;2022-12-10T08:38:26;58.33;;;23.63;;
23680;SDS011;62915;50.832;4.462;2022-12-10T08:40:51;57.22;;;23.20;;
23680;SDS011;62915;50.832;4.462;2022-12-10T08:43:17;61.42;;;22.60;;
23680;SDS011;62915;50.832;4.462;2022-12-10T08:45:43;66.63;;;24.42;;
23680;SDS011;62915;50.832;4.462;2022-12-10T08:48:08;61.95;;;24.95;;
23680;SDS011;62915;50.832;4.462;2022-12-10T08:50:35;63.03;;;25.88;;
23680;SDS011;62915;50.832;4.462;2022-12-10T08:53:01;73.35;;;25.50;;
23680;SDS011;62915;50.832;4.462;2022-12-10T08:55:27;74.88;;;25.85;;
23680;SDS011;62915;50.832;4.462;2022-12-10T08:57:53;71.78;;;28.40;;
23680;SDS011;62915;50.832;4.462;2022-12-10T09:00:19;70.30;;;27.10;;
23680;SDS011;62915;50.832;4.462;2022-12-10T09:02:45;67.43;;;25.45;;
23680;SDS011;62915;50.832;4.462;2022-12-10T09:05:11;68.38;;;26.05;;
23680;SDS011;62915;50.832;4.462;2022-12-10T09:07:37;72.32;;;25.92;;
23680;SDS011;62915;50.832;4.462;2022-12-10T09:10:03;72.63;;;28.83;;
23680;SDS011;62915;50.832;4.462;2022-12-10T09:12:29;63.72;;;27.02;;
23680;SDS011;62915;50.832;4.462;2022-12-10T09:14:55;82.63;;;29.58;;
23680;SDS011;62915;50.832;4.462;2022-12-10T09:17:21;74.15;;;29.60;;
23680;SDS011;62915;50.832;4.462;2022-12-10T09:19:47;72.38;;;26.38;;
23680;SDS011;62915;50.832;4.462;2022-12-10T09:22:13;68.90;;;24.98;;
23680;SDS011;62915;50.832;4.462;2022-12-10T09:24:38;66.65;;;25.50;;
23680;SDS011;62915;50.832;4.462;2022-12-10T09:27:04;77.85;;;28.60;;
23680;SDS011;62915;50.832;4.462;2022-12-10T09:29:30;63.08;;;25.02;;
23680;SDS011;62915;50.832;4.462;2022-12-10T09:31:55;60.10;;;23.83;;
23680;SDS011;62915;50.832;4.462;2022-12-10T09:34:21;58.70;;;23.30;;
23680;SDS011;62915;50.832;4.462;2022-12-10T09:36:47;55.58;;;22.92;;
23680;SDS011;62915;50.832;4.462;2022-12-10T09:39:12;58.00;;;22.63;;
23680;SDS011;62915;50.832;4.462;2022-12-10T09:47:01;58.45;;;24.33;;
23680;SDS011;62915;50.832;4.462;2022-12-10T09:52:13;60.65;;;24.25;;
23680;SDS011;62915;50.832;4.462;2022-12-10T09:54:44;61.40;;;24.60;;
23680;SDS011;62915;50.832;4.462;2022-12-10T09:57:16;64.35;;;25.90;;
23680;SDS011;62915;50.832;4.462;2022-12-10T09:59:51;69.55;;;27.52;;
23680;SDS011;62915;50.832;4.462;2022-12-10T10:02:53;64.53;;;25.83;;
23680;SDS011;62915;50.832;4.462;2022-12-10T10:05:13;78.55;;;30.20;;
23680;SDS011;62915;50.832;4.462;2022-12-10T10:08:05;77.68;;;28.52;;
23680;SDS011;62915;50.832;4.462;2022-12-10T10:10:37;69.22;;;28.23;;
23680;SDS011;62915;50.832;4.462;2022-12-10T10:15:34;65.38;;;28.20;;
23680;SDS011;62915;50.832;4.462;2022-12-10T10:18:45;81.45;;;33.30;;
23680;SDS011;62915;50.832;4.462;2022-12-10T10:20:53;87.13;;;30.80;;
23680;SDS011;62915;50.832;4.462;2022-12-10T10:23:20;71.50;;;29.88;;
23680;SDS011;62915;50.832;4.462;2022-12-10T10:25:46;76.15;;;31.27;;
23680;SDS011;62915;50.832;4.462;2022-12-10T10:28:12;71.45;;;28.58;;
23680;SDS011;62915;50.832;4.462;2022-12-10T10:30:44;70.47;;;27.70;;
23680;SDS011;62915;50.832;4.462;2022-12-10T10:33:10;67.90;;;27.08;;
23680;SDS011;62915;50.832;4.462;2022-12-10T10:35:45;65.93;;;26.10;;
23680;SDS011;62915;50.832;4.462;2022-12-10T10:38:22;70.18;;;28.52;;
23680;SDS011;62915;50.832;4.462;2022-12-10T10:40:54;69.55;;;26.83;;
23680;SDS011;62915;50.832;4.462;2022-12-10T10:43:28;68.03;;;26.90;;
23680;SDS011;62915;50.832;4.462;2022-12-10T10:46:02;66.10;;;27.08;;
23680;SDS011;62915;50.832;4.462;2022-12-10T10:48:31;71.15;;;27.85;;
23680;SDS011;62915;50.832;4.462;2022-12-10T10:59:26;62.85;;;25.35;;
23680;SDS011;62915;50.832;4.462;2022-12-10T11:01:49;60.00;;;25.17;;
23680;SDS011;62915;50.832;4.462;2022-12-10T11:04:24;56.40;;;22.52;;
23680;SDS011;62915;50.832;4.462;2022-12-10T11:06:54;56.70;;;23.02;;
23680;SDS011;62915;50.832;4.462;2022-12-10T11:09:26;60.08;;;22.77;;
23680;SDS011;62915;50.832;4.462;2022-12-10T11:12:02;61.75;;;24.55;;
23680;SDS011;62915;50.832;4.462;2022-12-10T11:14:31;67.28;;;25.25;;
23680;SDS011;62915;50.832;4.462;2022-12-10T11:17:18;55.13;;;22.00;;
23680;SDS011;62915;50.832;4.462;2022-12-10T11:22:49;62.50;;;24.05;;
23680;SDS011;62915;50.832;4.462;2022-12-10T11:25:17;56.28;;;24.00;;
23680;SDS011;62915;50.832;4.462;2022-12-10T11:27:56;66.20;;;24.33;;
23680;SDS011;62915;50.832;4.462;2022-12-10T11:30:31;62.88;;;24.33;;
23680;SDS011;62915;50.832;4.462;2022-12-10T11:38:33;59.75;;;24.30;;
23680;SDS011;62915;50.832;4.462;2022-12-10T11:41:34;55.97;;;23.92;;
23680;SDS011;62915;50.832;4.462;2022-12-10T11:47:27;62.72;;;22.23;;
23680;SDS011;62915;50.832;4.462;2022-12-10T12:01:13;50.13;;;21.10;;
23680;SDS011;62915;50.832;4.462;2022-12-10T12:04:06;57.22;;;20.80;;
23680;SDS011;62915;50.832;4.462;2022-12-10T12:13:08;56.35;;;22.75;;
23680;SDS011;62915;50.832;4.462;2022-12-10T12:15:44;57.50;;;21.92;;
23680;SDS011;62915;50.832;4.462;2022-12-10T12:21:07;53.72;;;20.48;;
23680;SDS011;62915;50.832;4.462;2022-12-10T12:26:44;54.92;;;23.10;;
23680;SDS011;62915;50.832;4.462;2022-12-10T12:34:51;59.15;;;23.10;;
23680;SDS011;62915;50.832;4.462;2022-12-10T12:37:20;67.32;;;23.27;;
23680;SDS011;62915;50.832;4.462;2022-12-10T12:42:29;63.22;;;24.80;;
23680;SDS011;62915;50.832;4.462;2022-12-10T12:45:19;66.43;;;24.27;;
23680;SDS011;62915;50.832;4.462;2022-12-10T12:53:35;66.43;;;25.70;;
23680;SDS011;62915;50.832;4.462;2022-12-10T13:01:40;68.28;;;25.80;;
23680;SDS011;62915;50.832;4.462;2022-12-10T13:04:09;68.45;;;25.77;;
23680;SDS011;62915;50.832;4.462;2022-12-10T13:06:36;63.58;;;24.98;;
23680;SDS011;62915;50.832;4.462;2022-12-10T13:11:39;66.68;;;26.40;;
23680;SDS011;62915;50.832;4.462;2022-12-10T13:25:04;64.45;;;24.52;;
23680;SDS011;62915;50.832;4.462;2022-12-10T13:29:45;57.90;;;22.40;;
23680;SDS011;62915;50.832;4.462;2022-12-10T13:32:16;52.15;;;21.15;;
23680;SDS011;62915;50.832;4.462;2022-12-10T13:34:43;53.05;;;22.23;;
23680;SDS011;62915;50.832;4.462;2022-12-10T13:47:50;60.17;;;22.07;;
23680;SDS011;62915;50.832;4.462;2022-12-10T13:55:55;57.78;;;20.50;;
23680;SDS011;62915;50.832;4.462;2022-12-10T14:06:52;53.92;;;20.92;;
23680;SDS011;62915;50.832;4.462;2022-12-10T14:09:19;50.22;;;19.48;;
23680;SDS011;62915;50.832;4.462;2022-12-10T14:17:18;49.28;;;20.08;;
23680;SDS011;62915;50.832;4.462;2022-12-10T14:19:46;46.92;;;19.60;;
23680;SDS011;62915;50.832;4.462;2022-12-10T14:22:16;51.22;;;19.73;;
23680;SDS011;62915;50.832;4.462;2022-12-10T14:24:45;47.97;;;19.00;;
23680;SDS011;62915;50.832;4.462;2022-12-10T14:27:18;52.22;;;20.25;;
23680;SDS011;62915;50.832;4.462;2022-12-10T14:29:50;47.53;;;20.83;;
23680;SDS011;62915;50.832;4.462;2022-12-10T14:32:20;51.88;;;20.13;;
23680;SDS011;62915;50.832;4.462;2022-12-10T14:34:56;50.50;;;20.67;;
23680;SDS011;62915;50.832;4.462;2022-12-10T14:37:24;46.47;;;21.42;;
23680;SDS011;62915;50.832;4.462;2022-12-10T14:39:55;56.97;;;22.13;;
23680;SDS011;62915;50.832;4.462;2022-12-10T14:42:22;55.08;;;22.05;;
23680;SDS011;62915;50.832;4.462;2022-12-10T14:44:58;49.97;;;21.45;;
23680;SDS011;62915;50.832;4.462;2022-12-10T14:47:26;49.58;;;20.38;;
23680;SDS011;62915;50.832;4.462;2022-12-10T14:49:57;47.08;;;19.65;;
23680;SDS011;62915;50.832;4.462;2022-12-10T14:52:31;48.83;;;20.15;;
23680;SDS011;62915;50.832;4.462;2022-12-10T14:55:00;47.90;;;20.35;;
23680;SDS011;62915;50.832;4.462;2022-12-10T14:57:34;47.05;;;19.45;;
23680;SDS011;62915;50.832;4.462;2022-12-10T15:00:10;50.08;;;21.42;;
23680;SDS011;62915;50.832;4.462;2022-12-10T15:02:41;46.72;;;19.75;;
23680;SDS011;62915;50.832;4.462;2022-12-10T15:05:10;43.47;;;18.42;;
23680;SDS011;62915;50.832;4.462;2022-12-10T15:07:40;49.03;;;19.65;;
23680;SDS011;62915;50.832;4.462;2022-12-10T15:10:14;48.67;;;20.20;;
23680;SDS011;62915;50.832;4.462;2022-12-10T15:12:45;47.72;;;19.48;;
23680;SDS011;62915;50.832;4.462;2022-12-10T15:17:59;49.15;;;18.85;;
23680;SDS011;62915;50.832;4.462;2022-12-10T15:20:32;49.20;;;18.92;;
23680;SDS011;62915;50.832;4.462;2022-12-10T15:28:36;51.17;;;20.70;;
23680;SDS011;62915;50.832;4.462;2022-12-10T15:33:59;52.65;;;22.85;;
23680;SDS011;62915;50.832;4.462;2022-12-10T15:39:21;56.60;;;23.00;;
23680;SDS011;62915;50.832;4.462;2022-12-10T15:42:06;60.97;;;23.80;;
23680;SDS011;62915;50.832;4.462;2022-12-10T15:44:36;37.17;;;15.48;;
23680;SDS011;62915;50.832;4.462;2022-12-10T15:49:44;58.55;;;24.15;;
23680;SDS011;62915;50.832;4.462;2022-12-10T15:52:15;55.78;;;21.55;;
23680;SDS011;62915;50.832;4.462;2022-12-10T15:54:55;52.30;;;22.45;;
23680;SDS011;62915;50.832;4.462;2022-12-10T15:57:27;57.85;;;24.33;;
23680;SDS011;62915;50.832;4.462;2022-12-10T15:59:57;60.28;;;23.60;;
23680;SDS011;62915;50.832;4.462;2022-12-10T16:02:35;50.70;;;21.42;;
23680;SDS011;62915;50.832;4.462;2022-12-10T16:05:12;55.47;;;22.35;;
23680;SDS011;62915;50.832;4.462;2022-12-10T16:07:40;56.95;;;21.75;;
23680;SDS011;62915;50.832;4.462;2022-12-10T16:10:06;54.60;;;20.83;;
23680;SDS011;62915;50.832;4.462;2022-12-10T16:12:35;54.20;;;22.23;;
23680;SDS011;62915;50.832;4.462;2022-12-10T16:15:01;51.72;;;24.90;;
23680;SDS011;62915;50.832;4.462;2022-12-10T16:17:29;54.33;;;22.52;;
23680;SDS011;62915;50.832;4.462;2022-12-10T16:22:53;52.60;;;22.52;;
23680;SDS011;62915;50.832;4.462;2022-12-10T16:25:21;56.38;;;24.35;;
23680;SDS011;62915;50.832;4.462;2022-12-10T16:27:49;54.88;;;25.10;;
23680;SDS011;62915;50.832;4.462;2022-12-10T16:30:16;49.35;;;23.38;;
23680;SDS011;62915;50.832;4.462;2022-12-10T16:32:47;52.15;;;22.73;;
23680;SDS011;62915;50.832;4.462;2022-12-10T16:35:13;56.65;;;23.63;;
23680;SDS011;62915;50.832;4.462;2022-12-10T16:37:41;59.60;;;23.45;;
23680;SDS011;62915;50.832;4.462;2022-12-10T16:40:07;50.13;;;23.35;;
23680;SDS011;62915;50.832;4.462;2022-12-10T16:42:34;46.90;;;21.30;;
23680;SDS011;62915;50.832;4.462;2022-12-10T16:44:59;51.30;;;21.30;;
23680;SDS011;62915;50.832;4.462;2022-12-10T16:47:25;52.85;;;23.98;;
23680;SDS011;62915;50.832;4.462;2022-12-10T16:49:51;59.22;;;23.42;;
23680;SDS011;62915;50.832;4.462;2022-12-10T16:52:17;54.90;;;24.45;;
23680;SDS011;62915;50.832;4.462;2022-12-10T16:54:43;63.42;;;24.17;;
23680;SDS011;62915;50.832;4.462;2022-12-10T16:57:12;62.03;;;25.45;;
23680;SDS011;62915;50.832;4.462;2022-12-10T16:59:39;62.50;;;24.90;;
23680;SDS011;62915;50.832;4.462;2022-12-10T17:02:12;60.30;;;25.38;;
23680;SDS011;62915;50.832;4.462;2022-12-10T17:04:40;56.83;;;24.95;;
23680;SDS011;62915;50.832;4.462;2022-12-10T17:07:06;55.95;;;26.70;;
23680;SDS011;62915;50.832;4.462;2022-12-10T17:09:34;52.38;;;22.25;;
23680;SDS011;62915;50.832;4.462;2022-12-10T17:11:59;62.03;;;25.40;;
23680;SDS011;62915;50.832;4.462;2022-12-10T17:14:26;57.63;;;26.42;;
23680;SDS011;62915;50.832;4.462;2022-12-10T17:16:55;53.63;;;23.88;;
23680;SDS011;62915;50.832;4.462;2022-12-10T17:19:23;63.80;;;26.50;;